D50

Crosby Municipal Airport

Crosby, North Dakota, USA
METAR KD50 201035Z AUTO 10013KT 4SM BR OVC018 M20/M22 A3013 RMK AO2
Observed Flight Rules
Jan-20 @ 10:35 UTC (23 minutes ago) Marginal Visual Flight Rules
Wind Visibility Clouds Conditions
100° at 13 knots 4 miles
  • Overcast at 1,800' AGL
  • Mist
Temperatures Readings
Current -20°C / -4°F
Dewpoint -22°C / -8°F
Humidity 84%
Altimeter 30.13" Hg
Pressure 1020.32 hPa
Elevation 595
METAR KD50 201035Z AUTO 10013KT 4SM BR OVC018 M20/M22 A3013 RMK AO2
Observed Flight Rules
Jan-20 @ 10:35 UTC
(23 minutes ago)
MVFR
Wind Visibility
100° at 13 knots 4 miles
Clouds
  • Overcast at 1,800' AGL
Conditions
  • Mist
Temperature Dewpoint
-20°C / -4°F -22°C / -8°F
Humidity Altimeter Pressure
84% 30.13" Hg 1020.32 hPa